Oirsbeek, Netherlands
Current Conditions -  °F | °C
As of 2:55 AM on Tuesday 23 Dec 2014 (Local Time) from EHBK Reporting Station
Overcast Overcast  
Wind Chill: 52°   Ceiling: 2200
Heat Index: 52°   Visibility: 6mi
Dew Point: 45°   Wind: 20mph
Humidity: 76%   Direction: 240°WSW
Pressure: 30.12"   Gusts: NA
Location:  50.95°N, 5.91°E
Report Text: EHBK 230155Z AUTO 24017KT 210V280 9999 OVC022 11/07 Q1020
Loading
Personal Weather Stations






























Interactive Weather Map New forecast layout! Learn more

10-Day Weather Forecast

Advertisements
Track Severe Weather on mobile